Time;durP1;ratioP1;P1;durP2;ratioP2;P2;SDS_P1;SDS_P2;PMS_P1;PMS_P2;Temp;Humidity;BMP_temperature;BMP_pressure;BME280_temperature;BME280_humidity;BME280_pressure;Samples;Min_cycle;Max_cycle;Signal;HPM_P1;HPM_P2
2022/09/13 00:01:00;;;;;;;13.90;11.20;;;;;;;8.67;87.82;100104.53;1713554;81;25434;-67
2022/09/13 00:03:28;;;;;;;14.38;10.15;;;;;;;8.60;87.70;100108.98;1716220;82;26293;-67
2022/09/13 00:05:54;;;;;;;15.43;10.40;;;;;;;8.53;87.67;100102.63;1746839;80;25654;-69
2022/09/13 00:08:21;;;;;;;13.85;10.45;;;;;;;8.47;87.26;100108.42;1728623;81;25467;-67
2022/09/13 00:10:48;;;;;;;15.48;10.78;;;;;;;8.42;87.40;100113.32;1735145;82;25497;-67
2022/09/13 00:13:16;;;;;;;16.50;10.82;;;;;;;8.37;87.68;100111.52;1725742;81;25585;-68
2022/09/13 00:15:48;;;;;;;15.60;9.90;;;;;;;8.32;87.80;100114.86;1741253;81;28077;-67
2022/09/13 00:18:17;;;;;;;16.85;10.68;;;;;;;8.27;87.92;100116.30;1733201;81;25615;-68
2022/09/13 00:20:45;;;;;;;15.10;10.97;;;;;;;8.20;87.92;100117.48;1735264;81;25427;-68
2022/09/13 00:23:12;;;;;;;14.00;9.83;;;;;;;8.15;87.92;100118.13;1741843;81;25621;-67
2022/09/13 00:25:39;;;;;;;17.25;10.60;;;;;;;8.09;88.04;100114.73;1724562;81;25627;-68
2022/09/13 00:28:06;;;;;;;14.95;10.48;;;;;;;8.03;88.24;100119.39;1724470;83;28340;-68
2022/09/13 00:30:33;;;;;;;12.90;10.60;;;;;;;8.00;88.29;100113.80;1733674;81;25448;-68
2022/09/13 00:33:03;;;;;;;18.20;10.40;;;;;;;7.95;87.99;100109.32;1729954;81;25568;-68
2022/09/13 00:35:27;;;;;;;23.75;11.05;;;;;;;7.91;87.89;100112.89;1750605;81;25648;-67
2022/09/13 00:37:53;;;;;;;14.63;10.53;;;;;;;7.84;87.98;100112.71;1733184;81;25699;-68
2022/09/13 00:40:20;;;;;;;14.45;10.38;;;;;;;7.80;88.02;100111.72;1723334;83;27584;-67
2022/09/13 00:42:46;;;;;;;16.40;10.25;;;;;;;7.77;88.15;100112.30;1724685;81;25747;-67
2022/09/13 00:45:17;;;;;;;13.60;10.03;;;;;;;7.73;88.40;100109.95;1723472;81;25708;-67
2022/09/13 00:47:52;;;;;;;13.03;9.55;;;;;;;7.70;88.26;100111.87;1753704;81;25637;-68
2022/09/13 00:50:26;;;;;;;13.88;9.75;;;;;;;7.66;88.32;100108.98;1745738;81;25676;-68
2022/09/13 00:53:04;;;;;;;15.30;10.80;;;;;;;7.62;88.07;100108.50;1731878;81;27457;-67
2022/09/13 00:55:43;;;;;;;16.70;10.78;;;;;;;7.57;88.08;100109.93;1737710;81;25498;-68
2022/09/13 00:58:21;;;;;;;14.15;10.48;;;;;;;7.52;87.94;100112.14;1734404;81;25612;-68
2022/09/13 01:00:49;;;;;;;13.58;10.10;;;;;;;7.43;88.09;100106.62;1731547;81;25621;-67
2022/09/13 01:03:19;;;;;;;12.65;9.83;;;;;;;7.39;88.12;100105.63;1743946;81;25582;-68
2022/09/13 01:05:56;;;;;;;14.38;9.35;;;;;;;7.35;88.18;100109.97;1733262;81;27671;-68
2022/09/13 01:08:23;;;;;;;13.25;9.75;;;;;;;7.31;88.17;100116.25;1742188;81;25527;-67
2022/09/13 01:10:51;;;;;;;13.03;10.05;;;;;;;7.25;88.27;100113.63;1736472;81;25586;-68
2022/09/13 01:13:22;;;;;;;14.65;10.58;;;;;;;7.22;88.13;100112.04;1742468;81;25665;-67
2022/09/13 01:15:49;;;;;;;13.88;9.85;;;;;;;7.16;88.27;100116.70;1718413;83;25629;-67
2022/09/13 01:18:16;;;;;;;13.65;9.40;;;;;;;7.14;88.38;100116.75;1740069;81;27481;-67
2022/09/13 01:21:22;;;;;;;13.32;9.78;;;;;;;7.11;88.74;100111.39;1738344;81;25818;-68
2022/09/13 01:24:19;;;;;;;14.28;9.78;;;;;;;7.07;88.77;100111.17;1731211;81;25405;-67
2022/09/13 01:27:30;;;;;;;14.18;9.70;;;;;;;7.03;88.66;100110.16;1723380;82;25746;-67
2022/09/13 01:30:24;;;;;;;17.20;10.48;;;;;;;6.99;88.76;100111.81;1726922;81;25756;-67
2022/09/13 01:33:16;;;;;;;15.48;9.90;;;;;;;6.96;88.85;100109.70;1724605;83;28163;-68
2022/09/13 01:36:16;;;;;;;12.58;10.28;;;;;;;6.90;88.85;100114.35;1708733;83;25770;-65
2022/09/13 01:39:08;;;;;;;14.07;9.85;;;;;;;6.85;88.84;100113.07;1702432;83;25630;-67
2022/09/13 01:42:00;;;;;;;17.12;10.40;;;;;;;6.81;88.50;100109.89;1692786;83;25919;-68
2022/09/13 01:44:35;;;;;;;15.85;10.43;;;;;;;6.75;88.45;100106.48;1692557;82;25661;-68
2022/09/13 01:47:27;;;;;;;13.10;9.65;;;;;;;6.68;88.59;100112.20;1687302;83;27476;-66
2022/09/13 01:50:35;;;;;;;14.23;10.55;;;;;;;6.65;88.74;100106.05;1630370;86;27500;-67
2022/09/13 01:53:07;;;;;;;14.83;10.28;;;;;;;6.62;88.62;100111.99;1631863;87;25654;-67
2022/09/13 01:56:03;;;;;;;17.82;10.78;;;;;;;6.60;88.25;100099.94;1629715;86;25741;-67
2022/09/13 01:58:41;;;;;;;17.07;11.05;;;;;;;6.57;88.59;100103.20;1632815;86;25722;-66
2022/09/13 02:01:35;;;;;;;16.17;11.18;;;;;;;6.53;88.64;100097.05;1636211;87;27500;-67
2022/09/13 02:04:08;;;;;;;16.05;10.70;;;;;;;6.49;88.77;100087.17;1638498;87;25674;-67
2022/09/13 02:06:40;;;;;;;15.50;10.15;;;;;;;6.44;88.79;100085.89;1620066;87;25612;-66
2022/09/13 02:09:14;;;;;;;18.80;10.72;;;;;;;6.42;88.72;100088.86;1632900;87;25551;-66
2022/09/13 02:11:45;;;;;;;16.17;10.93;;;;;;;6.38;88.71;100090.50;1633318;87;25527;-67
2022/09/13 02:14:37;;;;;;;17.82;11.95;;;;;;;6.34;88.63;100090.83;1641455;86;27615;-67
2022/09/13 02:17:11;;;;;;;17.12;10.85;;;;;;;6.29;88.67;100094.36;1628302;87;27308;-66
2022/09/13 02:19:55;;;;;;;15.85;10.68;;;;;;;6.26;88.71;100098.16;1631006;87;25452;-67
2022/09/13 02:22:27;;;;;;;17.15;11.10;;;;;;;6.22;88.67;100092.56;1645442;86;25744;-67
2022/09/13 02:24:58;;;;;;;24.85;13.70;;;;;;;6.18;88.94;100099.59;1644412;86;25562;-67
2022/09/13 02:27:28;;;;;;;20.75;12.30;;;;;;;6.16;89.07;100090.48;1684024;83;27644;-66
2022/09/13 02:30:04;;;;;;;17.17;11.50;;;;;;;6.14;89.18;100089.14;1708146;83;25540;-66
2022/09/13 02:32:39;;;;;;;18.48;10.88;;;;;;;6.11;89.25;100086.50;1667323;83;25580;-66
2022/09/13 02:35:12;;;;;;;20.05;10.90;;;;;;;6.08;89.17;100077.66;1693960;83;26048;-67
2022/09/13 02:37:41;;;;;;;16.27;11.35;;;;;;;6.06;88.97;100079.02;1703507;83;25408;-66
2022/09/13 02:40:14;;;;;;;17.27;12.23;;;;;;;6.04;88.82;100079.84;1698278;83;27025;-66
2022/09/13 02:42:46;;;;;;;18.30;12.40;;;;;;;6.02;88.96;100077.45;1703508;81;25604;-67
2022/09/13 02:45:13;;;;;;;19.05;11.78;;;;;;;6.01;89.11;100072.35;1692507;83;25678;-67
2022/09/13 02:47:59;;;;;;;18.30;11.83;;;;;;;5.98;88.94;100068.37;1692410;82;25595;-67
2022/09/13 02:50:57;;;;;;;19.07;12.35;;;;;;;5.97;88.91;100074.26;1701985;83;25413;-67
2022/09/13 02:53:46;;;;;;;19.30;12.90;;;;;;;5.94;88.98;100073.47;1700970;83;27552;-67
2022/09/13 02:56:29;;;;;;;;;;;;;;;5.92;88.82;100071.59;1702751;83;25637;-67
2022/09/13 02:59:18;;;;;;;18.57;12.70;;;;;;;5.90;89.01;100067.05;1701837;83;25589;-67
2022/09/13 03:02:02;;;;;;;19.30;12.03;;;;;;;5.85;88.72;100069.78;1710325;83;26228;-67
2022/09/13 03:04:29;;;;;;;19.05;13.40;;;;;;;5.79;88.85;100066.36;1720907;82;25563;-67
2022/09/13 03:06:55;;;;;;;25.68;13.22;;;;;;;5.76;88.92;100058.86;1699520;83;27517;-67
2022/09/13 03:09:22;;;;;;;16.12;11.90;;;;;;;5.73;89.03;100052.71;1703794;83;25562;-66
2022/09/13 03:12:12;;;;;;;20.48;12.82;;;;;;;5.70;89.14;100053.82;1710784;83;25590;-66
2022/09/13 03:14:50;;;;;;;17.05;12.85;;;;;;;5.68;89.00;100049.28;1712017;83;25580;-66
2022/09/13 03:17:42;;;;;;;21.25;13.22;;;;;;;5.65;88.97;100052.52;1702566;82;25447;-66
2022/09/13 03:20:28;;;;;;;18.95;13.08;;;;;;;5.60;88.87;100048.81;1693807;83;27565;-67
2022/09/13 03:23:09;;;;;;;16.82;12.15;;;;;;;5.58;89.08;100048.82;1714060;83;25659;-67
2022/09/13 03:25:50;;;;;;;18.73;11.95;;;;;;;5.55;89.11;100050.20;1713083;83;25556;-68
2022/09/13 03:28:30;;;;;;;20.30;13.10;;;;;;;5.53;89.14;100052.34;1703851;83;25771;-67
2022/09/13 03:31:25;;;;;;;20.25;13.03;;;;;;;5.53;89.38;100052.89;1701107;83;25623;-71
2022/09/13 03:34:21;;;;;;;19.90;12.28;;;;;;;5.50;89.33;100047.55;1700992;83;27432;-67
2022/09/13 03:36:58;;;;;;;15.28;11.60;;;;;;;5.49;89.29;100040.58;1682415;84;25799;-68
2022/09/13 03:39:33;;;;;;;19.67;12.63;;;;;;;5.47;89.23;100044.09;1641599;86;25786;-66
2022/09/13 03:42:04;;;;;;;18.90;12.53;;;;;;;5.45;89.19;100046.78;1649593;86;25493;-67
2022/09/13 03:44:33;;;;;;;20.80;13.60;;;;;;;5.43;88.97;100045.71;1655761;84;25707;-67
2022/09/13 03:47:03;;;;;;;17.77;11.88;;;;;;;5.43;89.15;100047.88;1641341;86;27429;-68
2022/09/13 03:49:30;;;;;;;17.70;12.58;;;;;;;5.41;89.06;100035.30;1648315;84;25646;-67
2022/09/13 03:51:58;;;;;;;18.05;11.57;;;;;;;5.40;89.29;100036.91;1652737;84;25736;-68
2022/09/13 03:54:31;;;;;;;17.35;11.57;;;;;;;5.36;89.01;100031.31;1660319;84;26028;-67
2022/09/13 03:57:18;;;;;;;15.65;11.33;;;;;;;5.34;88.87;100025.95;1641254;86;25806;-67
2022/09/13 03:59:54;;;;;;;17.70;11.20;;;;;;;5.34;89.02;100031.31;1641136;85;28413;-67
2022/09/13 04:02:23;;;;;;;15.15;11.18;;;;;;;5.32;89.10;100026.22;1641040;84;25695;-68
2022/09/13 04:04:50;;;;;;;15.28;10.98;;;;;;;5.30;88.94;100028.39;1667901;84;25702;-67
2022/09/13 04:07:20;;;;;;;21.52;11.63;;;;;;;5.30;89.10;100022.23;1652441;84;25829;-67
2022/09/13 04:09:47;;;;;;;16.27;11.50;;;;;;;5.29;89.03;100024.65;1666155;86;25620;-67
2022/09/13 04:12:16;;;;;;;15.95;11.12;;;;;;;5.28;88.92;100021.69;1654219;86;27556;-67
2022/09/13 04:14:43;;;;;;;14.90;11.07;;;;;;;5.27;88.96;100023.58;1698857;83;25459;-68
2022/09/13 04:17:10;;;;;;;15.15;10.80;;;;;;;5.26;89.12;100027.36;1702187;83;25727;-67
2022/09/13 04:19:36;;;;;;;17.32;11.57;;;;;;;5.25;89.02;100021.73;1702070;82;25559;-67
2022/09/13 04:22:04;;;;;;;17.77;10.70;;;;;;;5.24;88.98;100022.28;1711250;82;25592;-68
2022/09/13 04:24:31;;;;;;;13.95;10.30;;;;;;;5.23;89.09;100019.33;1710166;83;27574;-68
2022/09/13 04:26:58;;;;;;;16.10;10.35;;;;;;;5.23;89.15;100022.00;1702142;83;25816;-68
2022/09/13 04:29:26;;;;;;;16.02;10.70;;;;;;;5.24;89.38;100013.41;1702212;82;25504;-68
2022/09/13 04:31:54;;;;;;;16.85;10.75;;;;;;;5.24;89.29;100014.23;1719699;82;26007;-68
2022/09/13 04:34:21;;;;;;;19.20;11.05;;;;;;;5.26;89.17;100018.50;1702857;83;25575;-68
2022/09/13 04:36:51;;;;;;;16.12;10.90;;;;;;;5.28;89.62;100026.53;1734395;82;27453;-68
2022/09/13 04:39:19;;;;;;;16.80;12.10;;;;;;;5.29;90.00;100024.09;1713013;82;25430;-67
2022/09/13 04:41:47;;;;;;;19.77;12.00;;;;;;;5.30;90.14;100027.05;1713021;82;25626;-67
2022/09/13 04:44:16;;;;;;;20.77;12.03;;;;;;;5.33;90.39;100027.02;1713864;82;26039;-67
2022/09/13 04:46:48;;;;;;;20.77;13.35;;;;;;;5.34;90.66;100026.74;1715496;82;25668;-67
2022/09/13 04:49:16;;;;;;;19.77;11.80;;;;;;;5.39;90.84;100021.34;1712994;82;27574;-67
2022/09/13 04:51:43;;;;;;;18.93;11.60;;;;;;;5.42;90.95;100023.46;1715516;82;25602;-68
2022/09/13 04:54:11;;;;;;;18.45;11.57;;;;;;;5.47;91.14;100027.20;1714453;82;25578;-67
2022/09/13 04:56:37;;;;;;;20.92;11.33;;;;;;;5.51;91.41;100028.23;1715890;82;26195;-67
2022/09/13 04:59:03;;;;;;;26.52;13.15;;;;;;;5.53;91.41;100024.16;1712964;82;25589;-67
2022/09/13 05:01:29;;;;;;;26.33;12.37;;;;;;;5.57;91.56;100031.14;1716440;82;28142;-67
2022/09/13 05:03:55;;;;;;;19.87;11.70;;;;;;;5.60;91.78;100030.55;1712913;82;32752;-67
2022/09/13 05:06:22;;;;;;;19.92;11.63;;;;;;;5.67;92.21;100032.39;1712992;82;25614;-68
2022/09/13 05:08:54;;;;;;;21.35;11.57;;;;;;;5.71;92.33;100021.89;1700444;82;26138;-67
2022/09/13 05:11:26;;;;;;;20.77;12.60;;;;;;;5.76;92.54;100027.20;1721399;82;25631;-67
2022/09/13 05:13:56;;;;;;;17.00;11.38;;;;;;;5.84;92.84;100033.31;1714412;82;27531;-67
2022/09/13 05:16:23;;;;;;;;;;;;;;;5.90;92.88;100029.47;1684641;84;25740;-67
2022/09/13 05:18:50;;;;;;;15.50;9.85;;;;;;;5.93;92.61;100027.56;1676304;85;25674;-67
2022/09/13 05:21:18;;;;;;;15.88;10.90;;;;;;;5.94;92.63;100022.47;1680815;84;25672;-67
2022/09/13 05:23:46;;;;;;;20.23;11.65;;;;;;;6.02;93.54;100019.72;1676291;85;25748;-67
2022/09/13 05:26:12;;;;;;;18.63;10.90;;;;;;;6.10;93.73;100018.30;1672722;84;27525;-67
2022/09/13 05:28:38;;;;;;;18.02;10.80;;;;;;;6.17;93.99;100015.52;1682380;84;33132;-67
2022/09/13 05:31:16;;;;;;;22.25;10.98;;;;;;;6.27;94.48;100023.22;1676316;84;25625;-67
2022/09/13 05:33:44;;;;;;;20.65;11.20;;;;;;;6.36;94.48;100015.56;1682580;84;25529;-67
2022/09/13 05:36:10;;;;;;;14.15;10.80;;;;;;;6.46;95.01;100019.23;1684347;83;25585;-66
2022/09/13 05:38:36;;;;;;;14.35;9.95;;;;;;;6.59;95.48;100021.22;1678753;85;27650;-68
2022/09/13 05:41:05;;;;;;;16.82;9.93;;;;;;;6.69;95.58;100017.58;1678589;84;25557;-67
2022/09/13 05:43:35;;;;;;;16.70;10.68;;;;;;;6.78;95.09;100025.81;1678707;84;25440;-66
2022/09/13 05:46:12;;;;;;;16.17;9.90;;;;;;;6.84;94.58;100027.33;1680345;84;25476;-67
2022/09/13 05:48:40;;;;;;;18.77;11.38;;;;;;;6.90;94.81;100031.00;1686850;84;25564;-66
2022/09/13 05:51:21;;;;;;;21.25;10.08;;;;;;;7.04;95.73;100024.90;1686238;84;27514;-66
2022/09/13 05:53:52;;;;;;;15.53;9.65;;;;;;;7.18;95.82;100027.64;1678656;84;25825;-68
2022/09/13 05:56:25;;;;;;;14.83;9.88;;;;;;;7.29;96.11;100021.03;1678549;85;25572;-68
2022/09/13 05:58:54;;;;;;;13.25;9.75;;;;;;;7.43;96.43;100010.30;1707146;84;25869;-68
2022/09/13 06:01:24;;;;;;;14.38;10.05;;;;;;;7.54;96.34;100008.23;1691241;84;25602;-68
2022/09/13 06:03:54;;;;;;;17.35;11.10;;;;;;;7.71;97.37;100010.36;1694634;84;27547;-68
2022/09/13 06:06:21;;;;;;;;;;;;;;;7.82;96.80;100004.50;1694783;84;25475;-68
2022/09/13 06:08:53;;;;;;;15.43;10.60;;;;;;;7.94;96.96;99994.59;1694846;84;26291;-67
2022/09/13 06:11:20;;;;;;;26.97;12.43;;;;;;;8.07;97.50;99993.55;1682473;84;25626;-67
2022/09/13 06:13:46;;;;;;;17.62;12.05;;;;;;;8.20;96.62;99996.79;1693542;84;25758;-67
2022/09/13 06:16:15;;;;;;;21.55;12.68;;;;;;;8.30;97.15;99995.23;1696268;84;27537;-67
2022/09/13 06:18:42;;;;;;;22.27;12.23;;;;;;;8.39;96.81;99988.06;1691667;84;25727;-67
2022/09/13 06:21:16;;;;;;;21.93;12.80;;;;;;;8.48;96.61;99992.75;1698129;83;25534;-67
2022/09/13 06:23:47;;;;;;;21.15;12.80;;;;;;;8.64;97.87;99995.38;1694267;84;26254;-68
2022/09/13 06:26:16;;;;;;;25.02;13.18;;;;;;;8.77;97.96;99989.72;1687374;84;25522;-67
2022/09/13 06:28:47;;;;;;;;;;;;;;;8.94;98.22;99993.11;1689729;84;27489;-67
2022/09/13 06:31:16;;;;;;;28.55;12.73;;;;;;;9.06;98.02;99990.66;1688591;83;25645;-67
2022/09/13 06:33:43;;;;;;;16.75;12.20;;;;;;;9.21;97.85;99996.78;1687519;84;25709;-67
2022/09/13 06:36:17;;;;;;;24.43;13.90;;;;;;;9.26;97.17;99996.13;1701627;83;25712;-67
2022/09/13 06:38:45;;;;;;;22.75;14.35;;;;;;;9.43;98.31;99998.15;1688768;83;25491;-67
2022/09/13 06:41:17;;;;;;;20.75;14.18;;;;;;;9.60;98.52;99996.64;1698991;83;27455;-67
2022/09/13 06:43:43;;;;;;;24.98;14.03;;;;;;;9.67;97.51;100003.73;1688119;83;25719;-66
2022/09/13 06:46:16;;;;;;;19.65;13.93;;;;;;;9.80;97.71;99993.97;1695621;83;25461;-66
2022/09/13 06:48:44;;;;;;;32.80;16.35;;;;;;;9.97;98.20;99991.89;1715348;83;25703;-66
2022/09/13 06:51:15;;;;;;;31.52;15.32;;;;;;;10.14;98.72;99994.66;1709176;82;25643;-66
2022/09/13 06:53:43;;;;;;;26.97;15.90;;;;;;;10.21;97.24;99988.23;1701942;83;28196;-66
2022/09/13 06:56:13;;;;;;;27.15;15.23;;;;;;;10.27;96.81;99999.72;1695449;83;25553;-68
2022/09/13 06:58:43;;;;;;;28.05;16.07;;;;;;;10.36;97.51;100001.91;1705853;83;25667;-68
2022/09/13 07:01:14;;;;;;;23.02;15.72;;;;;;;10.51;97.85;99998.53;1694600;83;25473;-68
2022/09/13 07:03:45;;;;;;;23.75;15.50;;;;;;;10.62;97.60;99998.45;1707395;83;25431;-68
2022/09/13 07:06:15;;;;;;;24.12;16.40;;;;;;;10.79;97.97;99997.11;1705434;83;28029;-69
2022/09/13 07:08:43;;;;;;;27.05;16.27;;;;;;;10.95;98.48;100001.52;1708109;83;25700;-68
2022/09/13 07:11:13;;;;;;;24.20;16.20;;;;;;;11.16;98.31;100004.93;1687314;83;26224;-69
2022/09/13 07:13:39;;;;;;;22.50;15.85;;;;;;;11.29;97.58;99996.38;1694580;83;25601;-73
2022/09/13 07:16:28;;;;;;;23.57;15.90;;;;;;;11.48;98.11;99990.07;1707908;83;25461;-69
2022/09/13 07:18:58;;;;;;;21.60;14.80;;;;;;;11.65;96.69;99985.73;1587753;89;28417;-68
2022/09/13 07:21:26;;;;;;;21.50;15.85;;;;;;;11.76;95.83;99985.60;1592100;89;25731;-68
2022/09/13 07:23:55;;;;;;;22.35;15.30;;;;;;;11.91;96.71;99989.73;1595220;89;25789;-69
2022/09/13 07:26:22;;;;;;;23.83;16.00;;;;;;;12.11;95.98;99989.57;1594565;89;25784;-68
2022/09/13 07:28:52;;;;;;;27.42;16.62;;;;;;;12.39;97.96;99987.17;1603084;89;25552;-68
2022/09/13 07:31:23;;;;;;;25.43;15.95;;;;;;;12.66;96.71;99981.02;1590310;90;27469;-68
2022/09/13 07:33:56;;;;;;;24.02;16.42;;;;;;;12.95;96.74;99978.80;1554168;91;27179;-68
2022/09/13 07:36:24;;;;;;;21.93;15.32;;;;;;;13.26;95.02;99974.30;1591708;89;25468;-68
2022/09/13 07:38:51;;;;;;;22.98;15.15;;;;;;;13.53;94.58;99978.13;1589664;89;25816;-68
2022/09/13 07:41:21;;;;;;;23.18;15.60;;;;;;;13.82;94.62;99979.31;1579844;89;25835;-69
2022/09/13 07:43:48;;;;;;;19.45;13.75;;;;;;;14.04;93.01;99983.29;1577392;89;28099;-68
2022/09/13 07:46:20;;;;;;;19.20;14.85;;;;;;;14.31;91.77;99981.81;1584557;89;25657;-67
2022/09/13 07:48:48;;;;;;;20.05;14.85;;;;;;;14.56;90.27;99982.00;1599191;87;25505;-67
2022/09/13 07:51:19;;;;;;;14.60;12.90;;;;;;;14.94;91.38;99984.86;1651288;86;25599;-68
2022/09/13 07:53:49;;;;;;;14.58;12.15;;;;;;;15.52;89.78;99978.83;1640949;85;25661;-68
2022/09/13 07:56:19;;;;;;;12.35;10.40;;;;;;;16.02;88.86;99990.45;1656020;86;27662;-67
2022/09/13 07:58:49;;;;;;;13.70;11.00;;;;;;;16.79;88.92;99987.68;1625701;84;27325;-68
2022/09/13 08:01:22;;;;;;;11.00;9.45;;;;;;;17.54;86.39;99986.22;1656318;86;25404;-68
2022/09/13 08:03:55;;;;;;;12.80;9.40;;;;;;;18.26;84.66;99995.04;1641518;86;25697;-68
2022/09/13 08:06:22;;;;;;;10.23;7.90;;;;;;;18.92;81.65;99987.95;1655519;86;25703;-67
2022/09/13 08:08:49;;;;;;;11.78;8.23;;;;;;;19.32;77.34;99986.43;1654026;86;28097;-68
2022/09/13 08:11:20;;;;;;;10.65;7.58;;;;;;;19.48;76.64;99992.27;1649703;86;25770;-67
2022/09/13 08:13:47;;;;;;;9.03;7.25;;;;;;;19.98;76.03;99996.09;1649994;86;25475;-67
2022/09/13 08:16:17;;;;;;;9.28;7.25;;;;;;;20.22;73.54;99987.84;1650524;86;25888;-67
2022/09/13 08:18:46;;;;;;;8.90;7.05;;;;;;;20.32;72.63;99986.52;1642073;85;25736;-67
2022/09/13 08:21:14;;;;;;;9.35;7.35;;;;;;;20.30;70.46;99975.14;1654249;86;29114;-67
2022/09/13 08:23:41;;;;;;;10.23;7.50;;;;;;;20.39;70.99;99975.39;1662868;86;25621;-67
2022/09/13 08:26:09;;;;;;;12.65;7.58;;;;;;;20.57;68.97;99971.35;1643891;86;25642;-66
2022/09/13 08:28:38;;;;;;;11.38;8.78;;;;;;;20.78;69.97;99974.24;1662196;86;25653;-66
2022/09/13 08:31:16;;;;;;;11.15;8.18;;;;;;;20.86;67.78;99964.08;1632464;86;25770;-66
2022/09/13 08:33:49;;;;;;;9.48;7.05;;;;;;;20.88;67.25;99963.09;1662432;86;28033;-63
2022/09/13 08:36:17;;;;;;;12.78;8.13;;;;;;;21.07;67.99;99960.61;1648727;86;27280;-64
2022/09/13 08:38:49;;;;;;;11.83;8.43;;;;;;;20.99;64.52;99952.13;1626419;86;25652;-64
2022/09/13 08:41:41;;;;;;;10.20;7.67;;;;;;;21.01;65.37;99951.95;1639508;87;25666;-64
2022/09/13 08:44:22;;;;;;;10.43;7.15;;;;;;;21.09;65.89;99945.88;1601164;88;25729;-66
2022/09/13 08:46:48;;;;;;;6.92;5.45;;;;;;;21.55;66.18;99945.19;1600229;88;27818;-66
2022/09/13 08:49:29;;;;;;;7.87;6.92;;;;;;;22.14;64.96;99946.75;1627480;87;25801;-66
2022/09/13 08:52:06;;;;;;;8.80;5.00;;;;;;;22.71;63.98;99952.14;1616306;88;25603;-69
2022/09/13 08:54:33;;;;;;;10.18;7.12;;;;;;;23.21;63.00;99947.59;1615789;88;26137;-69
2022/09/13 08:57:16;;;;;;;8.50;6.87;;;;;;;23.37;59.82;99944.32;1616590;88;25736;-69
2022/09/13 09:00:18;;;;;;;8.30;6.33;;;;;;;23.41;58.55;99938.17;1615817;87;27524;-69
2022/09/13 09:03:23;;;;;;;7.95;4.53;;;;;;;23.73;58.80;99939.30;1616618;87;25783;-68
2022/09/13 09:05:51;;;;;;;6.67;3.95;;;;;;;24.30;57.31;99939.39;1617135;88;25953;-67
2022/09/13 09:08:49;;;;;;;6.42;4.40;;;;;;;24.52;55.48;99940.52;1616591;88;25709;-68
2022/09/13 09:11:58;;;;;;;6.87;3.22;;;;;;;24.58;54.34;99940.28;1618022;87;25754;-67
2022/09/13 09:14:38;;;;;;;6.12;4.33;;;;;;;24.52;54.01;99934.98;1616522;87;28587;-70
2022/09/13 09:17:15;;;;;;;3.95;3.62;;;;;;;24.69;53.79;99940.14;1601774;87;25838;-69
2022/09/13 09:19:55;;;;;;;3.98;3.58;;;;;;;24.49;51.97;99938.59;1590965;88;26402;-68
2022/09/13 09:22:25;;;;;;;4.35;2.90;;;;;;;24.30;52.31;99938.02;1584741;89;25730;-68
2022/09/13 09:24:54;;;;;;;3.72;2.85;;;;;;;24.46;51.94;99939.42;1608902;89;25682;-68
2022/09/13 09:27:22;;;;;;;2.45;2.25;;;;;;;24.31;50.96;99934.03;1609342;89;27783;-68
2022/09/13 09:29:56;;;;;;;4.67;2.65;;;;;;;24.18;50.28;99921.97;1609088;89;25504;-68
2022/09/13 09:32:45;;;;;;;3.08;2.60;;;;;;;24.05;49.95;99919.70;1594523;89;25527;-68
2022/09/13 09:35:47;;;;;;;3.40;2.20;;;;;;;23.92;50.00;99920.02;1609019;88;25750;-68
2022/09/13 09:38:36;;;;;;;4.35;2.87;;;;;;;23.98;49.37;99914.86;1520599;92;25743;-69
2022/09/13 09:41:25;;;;;;;3.92;3.27;;;;;;;23.65;48.95;99910.17;1530078;92;27513;-68
2022/09/13 09:44:17;;;;;;;3.87;3.35;;;;;;;23.44;48.56;99907.01;1531989;92;25648;-69
2022/09/13 09:47:07;;;;;;;5.45;3.87;;;;;;;23.29;48.45;99902.18;1547355;92;25778;-68
2022/09/13 09:52:58;;;;;;;5.10;3.67;;;;;;;22.97;49.10;99907.30;1547405;91;25686;-67
2022/09/13 09:55:45;;;;;;;7.50;5.17;;;;;;;22.84;49.17;99900.67;1547469;92;27542;-68
2022/09/13 09:58:15;;;;;;;8.08;4.40;;;;;;;22.64;49.00;99901.75;1542192;92;27353;-67
2022/09/13 10:00:57;;;;;;;5.45;4.37;;;;;;;22.42;49.25;99901.83;1550766;90;25830;-67
2022/09/13 10:03:29;;;;;;;5.17;4.22;;;;;;;22.30;49.94;99898.14;1563205;90;25791;-67
2022/09/13 10:06:12;;;;;;;8.13;5.67;;;;;;;22.20;50.53;99883.17;1562343;90;25813;-66
2022/09/13 10:08:41;;;;;;;6.97;5.37;;;;;;;22.17;49.89;99882.62;1555868;90;27564;-68
2022/09/13 10:11:08;;;;;;;;;;;;;;;21.94;50.20;99878.92;1568661;90;25933;-68
2022/09/13 10:13:37;;;;;;;7.47;5.20;;;;;;;21.92;51.38;99876.56;1621235;86;25663;-66
2022/09/13 10:16:28;;;;;;;5.55;4.47;;;;;;;22.15;52.18;99869.81;1637089;87;25680;-65
2022/09/13 10:19:17;;;;;;;6.87;4.42;;;;;;;22.49;52.18;99868.76;1634652;87;25725;-65
2022/09/13 10:21:49;;;;;;;8.53;4.60;;;;;;;22.63;51.43;99862.39;1612243;87;27491;-66
2022/09/13 10:24:19;;;;;;;7.25;4.70;;;;;;;22.72;51.34;99865.48;1605001;89;25725;-64
2022/09/13 10:26:46;;;;;;;9.70;4.78;;;;;;;22.76;51.29;99859.94;1590114;89;25698;-64
2022/09/13 10:29:15;;;;;;;6.25;4.47;;;;;;;22.71;50.13;99852.90;1608734;88;25801;-64
2022/09/13 10:31:45;;;;;;;5.72;4.42;;;;;;;22.64;50.73;99851.53;1615350;88;25714;-67
2022/09/13 10:34:22;;;;;;;8.08;5.20;;;;;;;22.80;50.87;99850.27;1616072;88;27545;-66
2022/09/13 10:37:24;;;;;;;5.10;4.60;;;;;;;22.74;50.22;99856.81;1614868;88;25734;-65
2022/09/13 10:40:01;;;;;;;6.62;4.75;;;;;;;22.70;50.58;99847.19;1599021;88;25505;-67
2022/09/13 10:42:29;;;;;;;5.12;4.40;;;;;;;22.64;49.96;99846.63;1608786;87;25818;-67
2022/09/13 10:45:04;;;;;;;7.55;5.08;;;;;;;22.42;49.78;99852.23;1615374;88;25493;-66
2022/09/13 10:47:44;;;;;;;7.08;4.62;;;;;;;22.25;50.18;99849.71;1613802;88;27473;-66
2022/09/13 10:50:24;;;;;;;8.38;4.80;;;;;;;22.15;50.49;99838.14;1618214;87;25749;-66
2022/09/13 10:52:57;;;;;;;6.53;4.65;;;;;;;22.03;50.13;99837.98;1613739;88;26085;-66
2022/09/13 10:55:37;;;;;;;5.90;4.53;;;;;;;21.85;50.33;99834.52;1615312;88;25514;-66
2022/09/13 10:58:09;;;;;;;7.53;4.85;;;;;;;21.76;50.52;99832.95;1613289;88;26701;-66
2022/09/13 11:01:05;;;;;;;8.63;4.95;;;;;;;21.53;50.59;99837.50;1606159;88;27562;-66
2022/09/13 11:04:00;;;;;;;5.55;4.17;;;;;;;21.35;50.98;99833.94;1600810;88;26130;-66
2022/09/13 11:06:35;;;;;;;7.53;4.53;;;;;;;21.11;51.42;99832.75;1534895;93;25864;-69
2022/09/13 11:09:16;;;;;;;6.65;4.60;;;;;;;20.86;51.37;99834.89;1535391;92;25537;-69
2022/09/13 11:11:59;;;;;;;6.03;4.50;;;;;;;20.69;52.08;99828.96;1534983;92;25717;-69
2022/09/13 11:15:03;;;;;;;11.12;5.42;;;;;;;20.48;52.42;99830.23;1535360;92;27561;-67
2022/09/13 11:18:18;;;;;;;8.10;4.83;;;;;;;20.19;52.48;99819.73;1559523;88;25773;-68
2022/09/13 11:21:11;;;;;;;6.95;4.90;;;;;;;20.02;53.52;99815.73;1586552;89;25707;-67
2022/09/13 11:24:07;;;;;;;9.73;4.83;;;;;;;20.07;54.16;99820.27;1582624;89;25624;-66
2022/09/13 11:27:03;;;;;;;5.08;4.60;;;;;;;20.19;54.68;99816.39;1579262;89;25587;-67
2022/09/13 11:29:40;;;;;;;6.55;4.70;;;;;;;20.39;55.02;99810.59;1573803;89;27733;-68
2022/09/13 11:32:21;;;;;;;6.35;4.15;;;;;;;20.36;55.15;99804.50;1564019;89;25896;-68
2022/09/13 11:35:15;;;;;;;6.00;4.40;;;;;;;20.24;55.52;99803.66;1562902;91;25775;-67
2022/09/13 11:37:59;;;;;;;4.78;4.22;;;;;;;20.15;55.82;99797.76;1572388;89;26262;-68
2022/09/13 11:40:58;;;;;;;6.62;4.30;;;;;;;20.06;55.74;99799.48;1566687;91;25469;-68
2022/09/13 11:44:01;;;;;;;5.25;4.08;;;;;;;19.95;56.03;99795.33;1648088;85;27688;-68
2022/09/13 11:46:38;;;;;;;9.38;4.85;;;;;;;19.96;56.15;99787.87;1647398;85;25449;-68
2022/09/13 11:49:34;;;;;;;4.85;3.50;;;;;;;19.86;55.92;99783.89;1658472;85;25675;-68
2022/09/13 11:52:41;;;;;;;6.42;3.80;;;;;;;19.80;56.13;99783.27;1575657;89;25791;-68
2022/09/13 11:55:36;;;;;;;5.85;3.60;;;;;;;19.78;56.39;99786.39;1567769;90;26314;-68
2022/09/13 11:58:23;;;;;;;8.10;3.35;;;;;;;19.69;55.79;99774.37;1567098;89;27537;-67
2022/09/13 12:00:58;;;;;;;8.08;3.85;;;;;;;19.54;56.65;99769.97;1563531;90;25528;-68
2022/09/13 12:03:50;;;;;;;7.12;3.62;;;;;;;19.39;56.29;99773.19;1556405;90;25719;-67
2022/09/13 12:06:27;;;;;;;4.10;3.17;;;;;;;19.25;56.76;99760.77;1632823;87;25648;-68